Time;durP1;ratioP1;P1;durP2;ratioP2;P2;SDS_P1;SDS_P2;PMS_P1;PMS_P2;Temp;Humidity;BMP_temperature;BMP_pressure;BME280_temperature;BME280_humidity;BME280_pressure;Samples;Min_cycle;Max_cycle;Signal;HPM_P1;HPM_P2
2021/10/22 00:00:31;;;;;;;15.88;4.63;;;6.50;87.70;;;;;;5074604;28;20090;-38
2021/10/22 00:02:57;;;;;;;20.08;4.40;;;6.50;87.60;;;;;;5074110;28;20048;-38
2021/10/22 00:05:23;;;;;;;14.43;4.82;;;6.50;87.60;;;;;;5074233;28;20524;-37
2021/10/22 00:07:48;;;;;;;18.80;5.18;;;6.60;87.60;;;;;;5074012;28;20017;-38
2021/10/22 00:10:14;;;;;;;17.27;5.00;;;6.60;87.50;;;;;;5074516;28;20017;-38
2021/10/22 00:12:40;;;;;;;15.85;4.68;;;6.50;87.50;;;;;;5074694;28;20024;-38
2021/10/22 00:15:08;;;;;;;19.17;5.60;;;6.60;87.40;;;;;;5074142;28;20025;-37
2021/10/22 00:17:35;;;;;;;16.55;4.38;;;6.70;87.50;;;;;;5074231;28;20025;-38
2021/10/22 00:20:00;;;;;;;18.27;5.97;;;6.70;87.10;;;;;;5073768;28;20024;-38
2021/10/22 00:22:26;;;;;;;16.65;4.18;;;6.60;87.40;;;;;;5073938;28;20040;-38
2021/10/22 00:24:52;;;;;;;16.63;4.75;;;6.60;87.50;;;;;;5074233;28;20096;-37
2021/10/22 00:27:17;;;;;;;21.33;5.68;;;6.50;87.80;;;;;;5074026;28;20025;-37
2021/10/22 00:29:43;;;;;;;17.58;4.95;;;6.50;87.70;;;;;;5073569;28;20047;-38
2021/10/22 00:32:08;;;;;;;33.15;5.38;;;6.60;87.50;;;;;;5073561;28;20040;-38
2021/10/22 00:34:34;;;;;;;13.48;4.38;;;6.60;87.40;;;;;;5073721;28;20028;-36
2021/10/22 00:37:00;;;;;;;18.70;5.25;;;6.60;87.40;;;;;;5073879;28;20036;-36
2021/10/22 00:39:26;;;;;;;23.55;4.30;;;6.60;87.50;;;;;;5073708;28;20028;-37
2021/10/22 00:41:52;;;;;;;22.00;4.38;;;6.60;87.40;;;;;;5073374;28;20034;-36
2021/10/22 00:44:18;;;;;;;19.67;4.03;;;6.60;87.40;;;;;;5073283;28;20122;-36
2021/10/22 00:46:44;;;;;;;19.77;5.22;;;6.60;87.40;;;;;;5073348;28;20551;-36
2021/10/22 00:49:12;;;;;;;16.88;4.70;;;6.50;87.50;;;;;;5073366;28;20104;-36
2021/10/22 00:51:39;;;;;;;17.27;4.40;;;6.60;87.70;;;;;;5073470;28;20032;-38
2021/10/22 00:54:06;;;;;;;12.77;4.35;;;6.60;87.50;;;;;;5055553;28;20028;-36
2021/10/22 00:56:34;;;;;;;18.73;5.10;;;6.60;87.50;;;;;;5073068;28;20020;-37
2021/10/22 00:58:59;;;;;;;15.00;4.00;;;6.60;87.50;;;;;;5072994;28;20023;-36
2021/10/22 01:01:25;;;;;;;21.92;4.25;;;6.60;87.50;;;;;;5073208;28;20387;-37
2021/10/22 01:03:51;;;;;;;26.77;4.95;;;6.70;87.50;;;;;;5072995;28;20151;-36
2021/10/22 01:06:17;;;;;;;22.20;5.55;;;6.80;87.20;;;;;;5072699;28;20485;-36
2021/10/22 01:08:43;;;;;;;19.92;4.70;;;6.80;87.00;;;;;;5073083;28;20108;-37
2021/10/22 01:11:09;;;;;;;16.77;4.50;;;6.80;86.80;;;;;;5072940;28;20016;-38
2021/10/22 01:13:37;;;;;;;25.15;6.35;;;6.90;86.60;;;;;;5073050;28;20029;-36
2021/10/22 01:16:03;;;;;;;11.20;3.78;;;7.00;86.50;;;;;;5055087;28;20422;-36
2021/10/22 01:18:29;;;;;;;14.98;4.28;;;7.00;86.40;;;;;;5073072;28;20107;-37
2021/10/22 01:21:05;;;;;;;17.88;4.10;;;7.00;86.20;;;;;;5072718;28;20028;-36
2021/10/22 01:23:32;;;;;;;18.40;3.90;;;7.00;86.10;;;;;;5072683;28;20032;-36
2021/10/22 01:25:58;;;;;;;8.27;3.88;;;6.90;86.00;;;;;;5072798;28;20147;-36
2021/10/22 01:28:24;;;;;;;10.68;4.00;;;6.90;86.10;;;;;;5073228;28;20503;-37
2021/10/22 01:30:50;;;;;;;11.73;3.55;;;6.90;86.00;;;;;;5074230;28;20051;-36
2021/10/22 01:33:20;;;;;;;14.05;3.25;;;7.00;85.80;;;;;;5054590;28;20021;-36
2021/10/22 01:35:48;;;;;;;11.38;2.97;;;7.00;85.80;;;;;;5072973;28;20020;-36
2021/10/22 01:38:20;;;;;;;13.02;3.75;;;7.00;85.50;;;;;;5072646;28;20492;-36
2021/10/22 01:40:47;;;;;;;12.82;3.15;;;7.00;85.30;;;;;;5073008;28;20456;-36
2021/10/22 01:43:13;;;;;;;22.23;4.00;;;7.00;85.50;;;;;;5073198;28;20492;-37
2021/10/22 01:45:38;;;;;;;18.73;3.25;;;7.00;85.30;;;;;;5072866;28;20025;-36
2021/10/22 01:48:05;;;;;;;10.85;4.32;;;7.00;85.30;;;;;;5072848;28;20453;-36
2021/10/22 01:50:31;;;;;;;13.93;2.90;;;7.00;85.20;;;;;;5072483;28;20031;-36
2021/10/22 01:52:57;;;;;;;9.15;3.13;;;7.00;85.00;;;;;;5054408;28;20035;-37
2021/10/22 01:55:23;;;;;;;20.70;4.15;;;7.10;84.80;;;;;;5072431;28;20107;-36
2021/10/22 01:57:48;;;;;;;15.73;3.80;;;7.10;84.80;;;;;;5054465;28;20032;-36
2021/10/22 02:00:14;;;;;;;7.80;2.85;;;7.10;84.80;;;;;;5072558;28;20059;-36
2021/10/22 02:02:40;;;;;;;18.48;3.58;;;7.10;84.90;;;;;;5072924;28;20040;-37
2021/10/22 02:05:06;;;;;;;7.82;2.55;;;7.00;84.90;;;;;;5054183;28;20040;-37
2021/10/22 02:07:32;;;;;;;16.58;3.03;;;7.00;85.10;;;;;;5072398;28;20025;-38
2021/10/22 02:09:58;;;;;;;12.95;3.25;;;7.10;85.00;;;;;;5072685;28;20081;-37
2021/10/22 02:12:24;;;;;;;23.33;4.05;;;7.10;85.30;;;;;;5072634;28;20566;-36
2021/10/22 02:14:51;;;;;;;17.30;4.13;;;7.10;85.60;;;;;;5072663;28;20048;-36
2021/10/22 02:17:16;;;;;;;17.83;3.40;;;7.00;85.90;;;;;;5054896;28;20086;-37
2021/10/22 02:19:42;;;;;;;21.05;4.38;;;7.00;86.10;;;;;;5054278;28;20054;-36
2021/10/22 02:22:08;;;;;;;5.68;2.70;;;6.80;86.40;;;;;;5072180;28;20025;-39
2021/10/22 02:24:35;;;;;;;9.50;3.65;;;6.80;86.60;;;;;;5054202;28;20036;-41
2021/10/22 02:27:00;;;;;;;14.98;3.90;;;6.80;86.70;;;;;;5072095;28;20043;-38
2021/10/22 02:29:26;;;;;;;21.00;5.00;;;6.80;87.10;;;;;;5072194;28;20028;-38
2021/10/22 02:31:52;;;;;;;12.80;3.15;;;6.70;87.00;;;;;;5074701;28;20066;-36
2021/10/22 02:34:17;;;;;;;12.52;3.88;;;6.70;87.00;;;;;;5076059;28;20017;-36
2021/10/22 02:36:43;;;;;;;17.15;3.78;;;6.70;87.10;;;;;;5075873;28;20024;-37
2021/10/22 02:39:09;;;;;;;12.80;3.30;;;6.70;87.10;;;;;;5057831;28;20017;-36
2021/10/22 02:41:35;;;;;;;16.52;4.32;;;6.50;87.40;;;;;;5076068;28;20043;-37
2021/10/22 02:44:00;;;;;;;21.92;3.92;;;6.50;87.70;;;;;;5075596;28;20071;-36
2021/10/22 02:46:26;;;;;;;14.15;3.38;;;6.50;87.80;;;;;;5075617;28;20021;-36
2021/10/22 02:48:51;;;;;;;15.63;3.83;;;6.50;87.70;;;;;;5075718;28;20025;-36
2021/10/22 02:51:17;;;;;;;18.60;4.65;;;6.50;87.80;;;;;;5058103;28;20031;-36
2021/10/22 02:53:43;;;;;;;10.23;3.90;;;6.40;87.70;;;;;;5075378;28;20093;-36
2021/10/22 02:56:08;;;;;;;7.22;2.78;;;6.40;87.80;;;;;;5075703;28;20025;-37
2021/10/22 02:58:34;;;;;;;16.23;3.28;;;6.40;87.80;;;;;;5075437;28;20064;-36
2021/10/22 03:01:00;;;;;;;9.52;3.00;;;6.30;87.90;;;;;;5075322;28;20047;-37
2021/10/22 03:03:26;;;;;;;21.23;5.90;;;6.40;88.00;;;;;;5075226;28;20086;-36
2021/10/22 03:05:51;;;;;;;15.75;3.28;;;6.30;88.00;;;;;;5057253;28;20045;-37
2021/10/22 03:08:17;;;;;;;16.63;4.60;;;6.30;88.00;;;;;;5075494;28;20059;-36
2021/10/22 03:10:42;;;;;;;17.10;3.17;;;6.30;87.90;;;;;;5075275;28;20111;-35
2021/10/22 03:13:08;;;;;;;10.15;3.88;;;6.30;87.60;;;;;;5075186;28;20020;-36
2021/10/22 03:15:34;;;;;;;19.42;4.15;;;6.30;87.20;;;;;;5075096;28;20048;-36
2021/10/22 03:18:00;;;;;;;22.23;4.72;;;6.30;86.80;;;;;;5074964;28;20077;-38
2021/10/22 03:20:26;;;;;;;13.18;3.28;;;6.40;86.60;;;;;;5075045;28;20120;-35
2021/10/22 03:22:52;;;;;;;15.80;4.15;;;6.30;86.80;;;;;;5074872;28;20033;-36
2021/10/22 03:25:17;;;;;;;14.68;3.25;;;6.30;87.00;;;;;;5074858;28;20395;-38
2021/10/22 03:27:43;;;;;;;13.90;4.60;;;6.30;86.70;;;;;;5075075;28;20025;-36
2021/10/22 03:30:10;;;;;;;14.82;3.78;;;6.40;86.20;;;;;;5075035;28;20448;-36
2021/10/22 03:32:35;;;;;;;13.73;4.97;;;6.40;86.20;;;;;;5074705;28;20025;-36
2021/10/22 03:35:03;;;;;;;11.75;3.97;;;6.40;86.00;;;;;;5074921;28;20035;-36
2021/10/22 03:37:29;;;;;;;26.23;4.07;;;6.40;86.00;;;;;;5056662;28;20361;-36
2021/10/22 03:39:54;;;;;;;19.00;4.65;;;6.40;86.10;;;;;;5056635;28;20029;-36
2021/10/22 03:42:20;;;;;;;22.80;3.90;;;6.30;86.40;;;;;;5073985;28;20504;-37
2021/10/22 03:44:45;;;;;;;18.20;4.38;;;6.30;86.10;;;;;;5074398;28;20109;-38
2021/10/22 03:47:12;;;;;;;15.40;3.50;;;6.30;86.20;;;;;;5074782;28;20074;-37
2021/10/22 03:49:38;;;;;;;17.73;4.28;;;6.30;86.10;;;;;;5074538;28;20094;-37
2021/10/22 03:52:04;;;;;;;14.65;4.10;;;6.30;86.10;;;;;;5074531;28;20104;-37
2021/10/22 03:54:30;;;;;;;14.32;3.80;;;6.30;86.00;;;;;;5074233;28;20043;-37
2021/10/22 03:56:55;;;;;;;17.17;4.07;;;6.30;85.90;;;;;;5073976;28;20025;-37
2021/10/22 03:59:21;;;;;;;9.80;3.38;;;6.20;86.00;;;;;;5074222;28;20023;-36
2021/10/22 04:01:47;;;;;;;22.00;4.93;;;6.20;86.10;;;;;;5074687;28;20029;-37
2021/10/22 04:04:13;;;;;;;19.35;4.28;;;6.20;86.40;;;;;;5073681;28;20036;-38
2021/10/22 04:06:39;;;;;;;19.58;5.35;;;6.10;86.30;;;;;;5073684;28;20055;-37
2021/10/22 04:09:04;;;;;;;8.57;4.07;;;6.10;86.60;;;;;;5073778;28;20035;-37
2021/10/22 04:11:30;;;;;;;16.13;4.72;;;6.10;86.40;;;;;;5055828;28;20023;-37
2021/10/22 04:13:56;;;;;;;12.18;3.92;;;6.00;86.30;;;;;;5074055;28;20472;-37
2021/10/22 04:16:23;;;;;;;16.98;4.18;;;6.10;86.00;;;;;;5074017;28;20024;-37
2021/10/22 04:18:49;;;;;;;23.05;3.63;;;6.10;86.00;;;;;;5073874;28;20384;-37
2021/10/22 04:21:14;;;;;;;12.60;3.72;;;6.00;86.00;;;;;;5073623;28;20082;-37
2021/10/22 04:23:40;;;;;;;14.57;5.45;;;6.00;86.00;;;;;;5074082;28;20364;-37
2021/10/22 04:26:06;;;;;;;12.82;3.33;;;6.10;86.00;;;;;;5073721;28;20333;-37
2021/10/22 04:28:32;;;;;;;19.00;4.15;;;6.00;85.70;;;;;;5074008;28;20538;-37
2021/10/22 04:30:58;;;;;;;15.48;5.00;;;6.10;85.50;;;;;;5074159;28;20029;-37
2021/10/22 04:33:23;;;;;;;12.63;3.38;;;6.10;85.40;;;;;;5073526;28;20051;-37
2021/10/22 04:35:49;;;;;;;15.27;4.30;;;6.00;85.20;;;;;;5055644;28;20084;-37
2021/10/22 04:40:47;;;;;;;21.92;4.22;;;6.10;84.70;;;;;;5073550;28;20390;-37
2021/10/22 04:43:15;;;;;;;16.20;4.05;;;6.10;84.40;;;;;;5073481;28;20123;-37
2021/10/22 04:45:43;;;;;;;13.45;3.50;;;6.10;84.30;;;;;;5073180;28;20472;-42
2021/10/22 04:48:11;;;;;;;14.35;3.35;;;6.10;84.20;;;;;;5074944;28;20048;-37
2021/10/22 04:50:42;;;;;;;8.23;2.40;;;6.20;84.10;;;;;;5055363;28;20028;-38
2021/10/22 04:53:08;;;;;;;12.05;3.30;;;6.10;84.10;;;;;;5055426;28;20029;-37
2021/10/22 04:55:34;;;;;;;12.93;3.92;;;6.10;83.90;;;;;;5073452;28;20043;-37
2021/10/22 04:58:00;;;;;;;11.00;3.65;;;6.10;83.60;;;;;;5055200;28;20025;-37
2021/10/22 05:00:26;;;;;;;13.82;3.78;;;6.20;83.50;;;;;;5073352;28;20503;-40
2021/10/22 05:02:52;;;;;;;16.58;5.65;;;6.30;82.80;;;;;;5073020;28;20024;-37
2021/10/22 05:05:17;;;;;;;10.20;3.40;;;6.40;82.40;;;;;;5073165;28;20112;-43
2021/10/22 05:07:43;;;;;;;16.70;3.70;;;6.40;82.00;;;;;;5073628;28;20089;-37
2021/10/22 05:10:10;;;;;;;11.55;3.13;;;6.40;82.10;;;;;;5073001;28;20020;-37
2021/10/22 05:12:36;;;;;;;13.73;4.50;;;6.50;81.70;;;;;;5073082;28;20035;-38
2021/10/22 05:15:04;;;;;;;16.85;4.20;;;6.60;81.50;;;;;;5073071;28;20020;-37
2021/10/22 05:17:32;;;;;;;20.13;5.18;;;6.70;81.20;;;;;;5073055;28;20384;-38
2021/10/22 05:19:57;;;;;;;10.57;3.83;;;6.70;81.00;;;;;;5073084;28;20032;-36
2021/10/22 05:22:23;;;;;;;15.27;3.63;;;6.80;80.60;;;;;;5054506;28;20035;-36
2021/10/22 05:24:49;;;;;;;17.50;4.47;;;6.80;80.10;;;;;;5072703;28;20063;-36
2021/10/22 05:27:15;;;;;;;6.25;3.42;;;6.80;79.80;;;;;;5073096;28;20030;-36
2021/10/22 05:29:40;;;;;;;11.75;3.92;;;6.80;80.00;;;;;;5055037;28;20469;-36
2021/10/22 05:32:06;;;;;;;12.95;4.80;;;6.80;79.80;;;;;;5073191;28;20048;-37
2021/10/22 05:34:32;;;;;;;13.75;2.97;;;6.80;79.70;;;;;;5072677;28;20032;-37
2021/10/22 05:36:58;;;;;;;9.85;2.70;;;6.80;79.50;;;;;;5072235;28;20020;-37
2021/10/22 05:39:24;;;;;;;13.35;3.17;;;6.80;79.60;;;;;;5072739;28;20025;-37
2021/10/22 05:41:51;;;;;;;17.27;3.85;;;6.70;79.80;;;;;;5073008;28;20024;-37
2021/10/22 05:44:18;;;;;;;20.77;3.20;;;6.70;79.50;;;;;;5072570;28;20037;-37
2021/10/22 05:46:48;;;;;;;14.77;3.65;;;6.70;79.40;;;;;;5054531;28;20020;-37
2021/10/22 05:49:14;;;;;;;19.57;3.03;;;6.70;79.30;;;;;;5054505;28;20020;-42
2021/10/22 05:51:40;;;;;;;14.85;3.42;;;6.70;79.40;;;;;;5072577;28;20044;-38
2021/10/22 05:54:06;;;;;;;17.48;3.40;;;6.70;79.50;;;;;;5072280;28;20028;-37
2021/10/22 05:56:31;;;;;;;15.90;3.00;;;6.80;79.10;;;;;;5054416;28;20123;-36
2021/10/22 05:58:57;;;;;;;10.73;2.95;;;6.80;79.10;;;;;;5072322;28;20028;-36
2021/10/22 06:01:23;;;;;;;11.05;2.72;;;6.80;78.90;;;;;;5072238;28;20123;-37
2021/10/22 06:03:49;;;;;;;5.57;1.55;;;6.80;79.00;;;;;;5072310;28;20025;-37
2021/10/22 06:06:15;;;;;;;8.13;2.88;;;6.80;78.80;;;;;;5073640;28;20138;-37
2021/10/22 06:08:41;;;;;;;4.65;2.15;;;6.80;78.90;;;;;;5076071;28;20081;-37
2021/10/22 06:11:11;;;;;;;21.33;4.05;;;6.80;78.80;;;;;;5076216;28;20017;-37
2021/10/22 06:13:41;;;;;;;12.87;3.10;;;6.80;78.90;;;;;;5057643;28;20056;-36
2021/10/22 06:16:09;;;;;;;20.40;5.40;;;6.80;79.00;;;;;;5076222;28;20285;-36
2021/10/22 06:18:37;;;;;;;15.02;3.95;;;6.80;79.10;;;;;;5076255;28;20440;-36
2021/10/22 06:21:09;;;;;;;19.63;3.63;;;6.80;79.30;;;;;;5076356;28;20502;-37
2021/10/22 06:23:53;;;;;;;10.43;2.53;;;6.80;79.40;;;;;;5075867;28;20028;-37
2021/10/22 06:26:20;;;;;;;16.77;3.53;;;6.80;79.30;;;;;;5076490;28;20095;-37
2021/10/22 06:28:47;;;;;;;16.15;2.13;;;6.80;79.10;;;;;;5076047;28;20020;-36
2021/10/22 06:31:12;;;;;;;9.55;3.10;;;7.00;78.80;;;;;;5076309;28;20028;-37
2021/10/22 06:33:38;;;;;;;10.73;2.95;;;7.00;78.60;;;;;;5075937;28;20555;-37
2021/10/22 06:36:08;;;;;;;11.43;2.22;;;7.10;78.60;;;;;;5075985;28;20028;-37
2021/10/22 06:38:34;;;;;;;15.60;4.05;;;7.10;78.30;;;;;;5075660;28;20025;-37
2021/10/22 06:41:00;;;;;;;8.25;3.20;;;7.20;78.10;;;;;;5075526;28;20032;-37
2021/10/22 06:43:26;;;;;;;12.23;3.05;;;7.20;78.40;;;;;;5057477;28;20063;-37
2021/10/22 06:45:52;;;;;;;6.07;2.97;;;7.20;78.20;;;;;;5075399;28;20056;-37
2021/10/22 06:48:19;;;;;;;6.00;2.50;;;7.20;78.20;;;;;;5075320;28;20035;-37
2021/10/22 06:50:46;;;;;;;9.13;3.45;;;7.20;78.30;;;;;;5075497;28;20429;-37
2021/10/22 06:53:12;;;;;;;21.65;5.45;;;7.20;78.50;;;;;;5075383;28;20043;-37
2021/10/22 06:55:39;;;;;;;17.17;3.03;;;7.10;78.80;;;;;;5075198;28;20127;-37
2021/10/22 06:58:05;;;;;;;12.68;3.50;;;7.00;79.00;;;;;;5075122;28;20029;-37
2021/10/22 07:00:32;;;;;;;10.32;2.75;;;7.10;79.00;;;;;;5074899;28;20393;-37
2021/10/22 07:02:58;;;;;;;10.50;3.67;;;7.00;79.30;;;;;;5074852;28;20028;-37
2021/10/22 07:07:59;;;;;;;8.02;2.92;;;7.10;79.20;;;;;;5075220;28;20050;-37
2021/10/22 07:10:25;;;;;;;10.98;3.42;;;7.10;79.10;;;;;;5074851;28;20069;-37
2021/10/22 07:12:51;;;;;;;10.65;2.97;;;7.10;78.80;;;;;;5074713;28;20064;-37
2021/10/22 07:15:17;;;;;;;14.00;3.25;;;7.10;78.80;;;;;;5057010;28;20021;-37
2021/10/22 07:17:45;;;;;;;15.85;3.70;;;7.20;78.90;;;;;;5055643;28;20111;-37
2021/10/22 07:20:12;;;;;;;11.35;3.08;;;7.20;78.80;;;;;;5075137;28;20142;-36
2021/10/22 07:22:47;;;;;;;13.75;2.85;;;7.20;78.80;;;;;;5074461;28;20341;-36
2021/10/22 07:25:13;;;;;;;18.92;6.22;;;7.30;78.40;;;;;;5074715;28;20129;-37
2021/10/22 07:27:38;;;;;;;9.25;2.95;;;7.30;78.60;;;;;;5074620;28;20028;-37
2021/10/22 07:30:05;;;;;;;10.77;3.22;;;7.30;78.40;;;;;;5056172;28;20020;-37
2021/10/22 07:32:30;;;;;;;15.73;3.42;;;7.40;78.80;;;;;;5074048;28;20074;-37
2021/10/22 07:34:56;;;;;;;12.60;3.30;;;7.50;78.30;;;;;;5074722;28;20025;-38
2021/10/22 07:37:22;;;;;;;15.50;4.82;;;7.60;78.00;;;;;;5074541;28;20021;-36
2021/10/22 07:39:49;;;;;;;9.75;3.22;;;7.60;78.00;;;;;;5074703;28;20367;-38
2021/10/22 07:42:14;;;;;;;14.05;3.47;;;7.80;77.60;;;;;;5074080;28;20032;-37
2021/10/22 07:44:40;;;;;;;15.30;3.92;;;7.80;77.60;;;;;;5056496;28;20031;-36
2021/10/22 07:47:06;;;;;;;14.52;4.15;;;7.90;77.20;;;;;;5074706;28;20031;-37
2021/10/22 07:49:32;;;;;;;11.18;4.03;;;7.90;76.90;;;;;;5074247;28;20514;-37
2021/10/22 07:51:59;;;;;;;8.63;2.85;;;8.00;76.80;;;;;;5073838;28;20024;-37
2021/10/22 07:54:24;;;;;;;11.32;3.10;;;8.10;76.70;;;;;;5056365;28;20482;-38
2021/10/22 07:56:50;;;;;;;11.27;3.90;;;8.10;76.60;;;;;;5055852;28;20025;-38
2021/10/22 07:59:16;;;;;;;18.65;3.47;;;8.20;76.50;;;;;;5055636;28;20468;-36
2021/10/22 08:01:43;;;;;;;11.48;2.95;;;8.30;76.20;;;;;;5073924;28;20090;-38
2021/10/22 08:04:11;;;;;;;17.95;4.07;;;8.30;76.20;;;;;;5073494;28;20099;-37
2021/10/22 08:06:38;;;;;;;13.52;2.65;;;8.60;75.40;;;;;;5073499;28;20163;-37
2021/10/22 08:09:05;;;;;;;9.60;2.92;;;8.50;75.40;;;;;;5056322;28;20491;-37
2021/10/22 08:11:30;;;;;;;11.70;2.83;;;8.30;75.60;;;;;;5073539;28;20048;-37
2021/10/22 08:13:58;;;;;;;13.30;4.65;;;8.30;76.10;;;;;;5073611;28;20472;-38
2021/10/22 08:16:23;;;;;;;11.30;2.35;;;8.30;76.00;;;;;;5073833;28;20107;-37
2021/10/22 08:18:49;;;;;;;14.95;3.45;;;8.30;76.40;;;;;;5073627;28;20428;-37
2021/10/22 08:21:21;;;;;;;11.15;2.47;;;8.30;76.70;;;;;;5073262;28;20116;-38
2021/10/22 08:23:48;;;;;;;13.95;3.28;;;8.40;76.40;;;;;;5055212;28;20021;-38
2021/10/22 08:26:15;;;;;;;7.13;1.70;;;8.40;76.50;;;;;;5054901;28;20028;-39
2021/10/22 08:28:42;;;;;;;9.35;2.38;;;8.40;76.70;;;;;;5072520;28;20020;-36
2021/10/22 08:31:08;;;;;;;9.55;2.20;;;8.50;76.40;;;;;;5073157;28;20016;-37
2021/10/22 08:33:34;;;;;;;17.80;3.10;;;8.60;76.00;;;;;;5072852;28;20047;-37
2021/10/22 08:35:59;;;;;;;11.68;3.58;;;8.50;76.70;;;;;;5073562;28;20028;-37
2021/10/22 08:38:28;;;;;;;19.73;3.92;;;8.50;76.80;;;;;;5072890;28;20102;-38
2021/10/22 08:40:58;;;;;;;13.00;2.72;;;8.80;76.00;;;;;;5073833;28;20388;-38
2021/10/22 08:43:25;;;;;;;;;;;9.00;75.30;;;;;;5055055;28;20429;-37
2021/10/22 08:46:02;;;;;;;9.50;2.88;;;8.80;76.30;;;;;;5073151;28;19913;-38
2021/10/22 08:48:29;;;;;;;11.38;4.32;;;8.60;77.50;;;;;;5072914;28;20169;-47
2021/10/22 08:50:56;;;;;;;15.65;3.60;;;8.60;77.70;;;;;;5072644;28;20056;-37
2021/10/22 08:53:23;;;;;;;9.05;2.60;;;8.70;77.20;;;;;;5072689;28;20028;-38
2021/10/22 08:55:48;;;;;;;9.02;3.50;;;8.60;77.70;;;;;;5072620;28;20020;-38
2021/10/22 08:58:18;;;;;;;18.65;4.30;;;8.80;77.10;;;;;;5073144;28;20035;-39
2021/10/22 09:00:44;;;;;;;9.68;3.20;;;8.80;76.90;;;;;;5072451;28;20071;-37
2021/10/22 09:03:14;;;;;;;16.27;4.55;;;8.70;77.20;;;;;;5072622;28;20387;-37
2021/10/22 09:05:58;;;;;;;11.77;3.22;;;8.70;77.50;;;;;;5072899;28;20051;-37
2021/10/22 09:08:53;;;;;;;25.10;9.05;;;9.00;76.70;;;;;;5072603;28;20078;-38
2021/10/22 09:11:29;;;;;;;23.40;3.20;;;9.00;76.50;;;;;;5071052;28;20029;-37
2021/10/22 09:14:15;;;;;;;13.57;3.00;;;9.00;76.50;;;;;;5072967;28;20027;-40
2021/10/22 09:16:42;;;;;;;15.90;3.25;;;9.20;76.50;;;;;;5072975;28;20044;-38
2021/10/22 09:19:08;;;;;;;11.07;2.83;;;9.20;76.40;;;;;;5072801;28;20032;-39
2021/10/22 09:21:34;;;;;;;13.43;2.92;;;9.30;76.20;;;;;;5072812;28;20028;-40
2021/10/22 09:24:17;;;;;;;9.98;2.85;;;9.40;75.60;;;;;;5054740;28;20048;-37
2021/10/22 09:26:52;;;;;;;19.60;3.35;;;9.30;76.10;;;;;;5072147;28;20043;-38
2021/10/22 09:29:20;;;;;;;15.95;2.72;;;9.20;76.50;;;;;;5072165;28;20078;-38
2021/10/22 09:31:55;;;;;;;6.75;1.67;;;9.90;74.50;;;;;;5072704;28;20481;-37
2021/10/22 09:34:35;;;;;;;7.97;2.70;;;10.50;72.10;;;;;;5054106;28;20051;-36
2021/10/22 09:37:03;;;;;;;11.38;4.05;;;10.80;71.40;;;;;;5072486;28;20086;-37
2021/10/22 09:39:34;;;;;;;9.43;2.50;;;11.20;69.80;;;;;;5072325;28;20128;-38
2021/10/22 09:42:01;;;;;;;11.65;3.45;;;11.10;69.50;;;;;;5053491;28;20029;-38
2021/10/22 09:44:37;;;;;;;17.13;3.15;;;10.80;70.70;;;;;;5054745;28;20042;-37
2021/10/22 09:47:06;;;;;;;8.05;2.70;;;10.80;70.70;;;;;;5072248;28;20028;-38
2021/10/22 09:49:37;;;;;;;9.85;2.75;;;11.30;69.80;;;;;;5053878;28;20020;-38
2021/10/22 09:52:12;;;;;;;8.10;2.38;;;11.50;68.10;;;;;;5054236;28;20036;-38
2021/10/22 09:54:37;;;;;;;10.15;2.35;;;11.20;69.00;;;;;;5072179;28;20052;-38
2021/10/22 09:57:07;;;;;;;13.68;3.00;;;11.10;69.70;;;;;;5072133;28;20110;-37
2021/10/22 09:59:33;;;;;;;9.65;3.72;;;11.60;68.70;;;;;;5072002;28;20036;-37
2021/10/22 10:02:01;;;;;;;4.70;1.90;;;11.50;68.40;;;;;;5072169;28;20013;-37
2021/10/22 10:04:27;;;;;;;5.47;2.45;;;11.80;67.50;;;;;;5072036;28;20025;-38
2021/10/22 10:06:54;;;;;;;11.25;2.60;;;11.90;66.60;;;;;;5071908;28;20071;-38
2021/10/22 10:09:21;;;;;;;14.27;2.88;;;11.80;66.50;;;;;;5071487;28;20455;-37
2021/10/22 10:11:49;;;;;;;10.15;2.50;;;12.10;65.80;;;;;;5053646;28;20024;-39
2021/10/22 10:14:16;;;;;;;10.90;3.20;;;12.20;65.50;;;;;;5071339;28;20032;-38
2021/10/22 10:16:44;;;;;;;13.30;2.53;;;12.00;65.80;;;;;;5071471;28;20029;-38
2021/10/22 10:19:49;;;;;;;15.52;2.20;;;11.30;67.50;;;;;;5071837;28;20598;-37
2021/10/22 10:22:19;;;;;;;14.15;3.08;;;11.10;68.40;;;;;;5071322;28;20049;-38
2021/10/22 10:24:50;;;;;;;9.60;2.23;;;10.80;68.70;;;;;;5071856;28;20043;-37
2021/10/22 10:27:24;;;;;;;10.60;2.22;;;10.80;69.70;;;;;;5071516;28;20024;-38
2021/10/22 10:30:00;;;;;;;12.82;2.40;;;10.90;69.30;;;;;;5071027;28;20326;-37
2021/10/22 10:32:30;;;;;;;11.43;3.63;;;11.00;69.00;;;;;;5071716;28;20047;-37
2021/10/22 10:34:58;;;;;;;7.22;3.13;;;11.10;68.50;;;;;;5071781;28;20036;-37
2021/10/22 10:37:41;;;;;;;13.23;2.42;;;11.30;68.00;;;;;;5071839;28;20162;-37
2021/10/22 10:40:11;;;;;;;5.60;2.30;;;11.40;67.40;;;;;;5053889;28;20024;-37
2021/10/22 10:42:56;;;;;;;10.10;2.60;;;11.20;68.10;;;;;;5071655;28;20358;-38
2021/10/22 10:45:25;;;;;;;9.13;2.65;;;11.20;68.70;;;;;;5055168;28;20035;-38
2021/10/22 10:47:55;;;;;;;12.43;2.70;;;11.40;67.50;;;;;;5053571;28;20364;-37
2021/10/22 10:50:22;;;;;;;;;;;11.60;67.20;;;;;;5072102;28;20031;-39
2021/10/22 10:52:51;;;;;;;15.18;2.33;;;11.60;66.90;;;;;;5055926;28;20312;-37
2021/10/22 10:55:29;;;;;;;7.70;2.22;;;11.80;66.50;;;;;;5074929;28;20031;-37
2021/10/22 10:58:07;;;;;;;7.57;2.45;;;11.80;66.10;;;;;;5057433;28;20371;-37
2021/10/22 11:00:38;;;;;;;8.70;2.50;;;11.60;65.90;;;;;;5074672;28;20029;-38
2021/10/22 11:03:04;;;;;;;13.48;1.92;;;11.50;66.50;;;;;;5074822;28;20028;-38
2021/10/22 11:05:45;;;;;;;8.70;2.63;;;11.50;66.60;;;;;;5074929;28;20052;-38
2021/10/22 11:08:13;;;;;;;15.60;2.15;;;11.50;66.40;;;;;;5074915;28;20028;-39
2021/10/22 11:11:06;;;;;;;8.40;3.45;;;11.30;66.30;;;;;;5074490;28;20028;-38
2021/10/22 11:13:49;;;;;;;13.30;2.67;;;11.30;66.60;;;;;;5074688;28;20052;-38
2021/10/22 11:16:41;;;;;;;11.13;2.92;;;11.60;66.00;;;;;;5074836;28;20132;-38
2021/10/22 11:19:17;;;;;;;6.93;2.55;;;11.60;66.00;;;;;;5074892;28;20056;-38
2021/10/22 11:21:56;;;;;;;6.40;2.15;;;11.80;65.10;;;;;;5074484;28;20476;-38
2021/10/22 11:24:27;;;;;;;6.95;1.85;;;11.60;65.50;;;;;;5056570;28;20082;-37
2021/10/22 11:27:05;;;;;;;10.32;2.53;;;11.50;66.00;;;;;;5074164;28;20028;-38
2021/10/22 11:29:52;;;;;;;11.63;3.75;;;11.50;65.90;;;;;;5075002;28;20047;-37
2021/10/22 11:32:21;;;;;;;8.45;2.00;;;11.50;66.10;;;;;;5074829;28;20100;-38
2021/10/22 11:34:57;;;;;;;10.33;2.37;;;11.40;66.40;;;;;;5074687;28;20373;-38
2021/10/22 11:37:25;;;;;;;10.02;2.08;;;11.50;66.40;;;;;;5074046;28;20127;-38
2021/10/22 11:39:54;;;;;;;10.27;2.53;;;11.50;66.40;;;;;;5074599;28;20024;-38
2021/10/22 11:42:33;;;;;;;12.15;2.38;;;11.50;66.80;;;;;;5074110;28;20024;-38
2021/10/22 11:45:08;;;;;;;7.55;1.65;;;11.40;67.40;;;;;;5074265;28;20103;-38
2021/10/22 11:47:46;;;;;;;5.40;2.05;;;11.30;67.80;;;;;;5074146;28;20116;-37
2021/10/22 11:50:22;;;;;;;7.63;2.10;;;11.30;68.10;;;;;;5056037;28;20520;-38
2021/10/22 11:52:49;;;;;;;12.55;2.10;;;11.40;68.10;;;;;;5073788;28;20021;-37
2021/10/22 11:55:20;;;;;;;12.35;2.22;;;11.50;67.90;;;;;;5055598;28;20495;-39
2021/10/22 11:57:45;;;;;;;13.80;2.33;;;11.50;68.30;;;;;;5073752;28;20096;-39
2021/10/22 12:00:12;;;;;;;10.00;1.90;;;11.40;68.40;;;;;;5073834;28;20072;-38
2021/10/22 12:02:38;;;;;;;5.85;1.80;;;11.50;68.20;;;;;;5073499;28;20133;-37
2021/10/22 12:05:07;;;;;;;5.75;1.38;;;11.40;68.50;;;;;;5072714;28;20049;-39
2021/10/22 12:07:44;;;;;;;8.30;2.03;;;11.30;69.00;;;;;;5073538;28;20036;-38
2021/10/22 12:10:14;;;;;;;8.48;2.15;;;11.50;68.50;;;;;;5073110;28;20060;-37
2021/10/22 12:12:47;;;;;;;11.00;2.05;;;11.50;68.70;;;;;;5073623;28;20044;-38
2021/10/22 12:15:19;;;;;;;6.65;2.33;;;11.40;69.00;;;;;;5073112;28;20167;-38
2021/10/22 12:17:51;;;;;;;4.40;1.52;;;11.50;69.00;;;;;;5073620;28;20052;-37
2021/10/22 12:20:17;;;;;;;6.07;1.83;;;11.70;68.30;;;;;;5073334;28;20028;-38
2021/10/22 12:22:54;;;;;;;8.30;1.95;;;11.60;68.70;;;;;;5073155;28;20116;-38
2021/10/22 12:25:21;;;;;;;6.32;1.58;;;11.80;68.60;;;;;;5055199;28;20074;-38
2021/10/22 12:27:55;;;;;;;7.25;3.10;;;11.90;68.40;;;;;;5056162;28;20020;-47
2021/10/22 12:30:25;;;;;;;6.50;2.40;;;11.80;68.90;;;;;;5072977;28;20028;-38
2021/10/22 12:33:06;;;;;;;9.60;2.13;;;11.80;69.30;;;;;;5073289;28;20130;-38
2021/10/22 12:35:41;;;;;;;12.23;3.10;;;11.90;68.70;;;;;;5073131;28;20037;-37
2021/10/22 12:38:17;;;;;;;6.57;2.65;;;11.70;69.40;;;;;;5073475;28;20036;-38
2021/10/22 12:40:49;;;;;;;13.35;2.40;;;11.80;69.70;;;;;;5073263;28;20031;-38
2021/10/22 12:43:23;;;;;;;11.60;2.40;;;11.80;69.90;;;;;;5072814;28;20025;-37
2021/10/22 12:46:04;;;;;;;6.88;1.50;;;11.80;69.90;;;;;;5073125;28;20496;-37
2021/10/22 12:48:35;;;;;;;6.85;2.03;;;12.00;69.40;;;;;;5073077;28;20055;-37
2021/10/22 12:51:06;;;;;;;8.70;1.85;;;12.30;68.90;;;;;;5072712;28;20090;-38
2021/10/22 12:53:43;;;;;;;9.73;2.58;;;12.10;69.50;;;;;;5073134;28;20464;-37
2021/10/22 12:56:11;;;;;;;6.43;1.65;;;12.10;69.60;;;;;;5073048;28;20032;-37
2021/10/22 12:58:38;;;;;;;4.32;1.80;;;12.00;70.00;;;;;;5073128;28;20440;-37